CYBW/YBW METAR and TAF weather

Enter ICAO airport designator
Station Type Date Time Source
CYBW METAR 2020/07/09 09:00 UTC NOAA

CYBW 090900Z AUTO 30003KT 9SM CLR 08/07 A2997 RMK SLP159


Station Type Date Time Source
CYBW Decoded METAR 2020/07/09 09:00 UTC NOAA

Calgary / Springbank, Canada (CYBW) 51-06N 114-22W
Jul 09, 2020 - 05:00 AM EDT / 2020.07.09 0900 UTC
Wind: from the WNW (300 degrees) at 3 MPH (3 KT):0
Visibility: 9 mile(s):0
Sky conditions: clear
Temperature: 46 F (8 C)
Dew Point: 44 F (7 C)
Relative Humidity: 93%
Pressure (altimeter): 29.97 in. Hg (1014 hPa)
ob: CYBW 090900Z AUTO 30003KT 9SM CLR 08/07 A2997 RMK SLP159
cycle: 9

Station Type Date Time Source
CYBW TAF 2020/07/08 18:00 UTC NOAA

TAF CYBW 081738Z 0818/0904 33018G30KT P6SM OVC060
TEMPO 0818/0820 P6SM -SHRA
FM082000 33012G22KT P6SM SCT020 BKN050
BECMG 0822/0824 36005KT
RMK FCST BASED ON AUTO OBS. NXT FCST BY 090000Z

Example: see airport list